createdAt,value
2024-03-28T00:05:06.549Z,974
2024-03-28T00:17:06.297Z,974
2024-03-28T00:29:06.265Z,973
2024-03-28T00:41:06.196Z,973
2024-03-28T00:53:06.422Z,973
2024-03-28T01:05:07.197Z,973
2024-03-28T01:17:06.809Z,972
2024-03-28T01:29:06.664Z,972
2024-03-28T01:41:06.389Z,972
2024-03-28T01:53:06.364Z,972
2024-03-28T02:05:06.332Z,972
2024-03-28T02:17:06.680Z,972
2024-03-28T02:29:06.430Z,971
2024-03-28T02:41:06.371Z,971
2024-03-28T02:53:06.385Z,971
2024-03-28T03:05:06.723Z,970
2024-03-28T03:17:06.502Z,970
2024-03-28T03:29:06.871Z,970
2024-03-28T03:41:06.399Z,970
2024-03-28T03:53:06.777Z,970
2024-03-28T04:05:06.954Z,970
2024-03-28T04:17:06.686Z,970
2024-03-28T04:29:06.683Z,970
2024-03-28T04:41:06.589Z,969
2024-03-28T04:53:06.757Z,969
2024-03-28T05:05:06.728Z,969
2024-03-28T05:17:06.876Z,969
2024-03-28T05:29:06.601Z,969
2024-03-28T05:41:06.610Z,969
2024-03-28T05:53:06.515Z,969
2024-03-28T06:05:06.708Z,969
2024-03-28T06:17:06.678Z,969
2024-03-28T06:29:06.632Z,969
2024-03-28T06:41:06.558Z,969
2024-03-28T06:53:06.756Z,969
2024-03-28T07:05:06.687Z,969
2024-03-28T07:17:06.859Z,969
2024-03-28T07:29:07.035Z,970
2024-03-28T07:41:06.797Z,970
2024-03-28T07:53:06.724Z,970
2024-03-28T08:05:06.715Z,970
2024-03-28T08:17:06.826Z,970
2024-03-28T08:29:06.790Z,971
2024-03-28T08:41:06.737Z,972
2024-03-28T08:53:06.998Z,972
2024-03-28T09:05:07.065Z,972
2024-03-28T09:17:06.810Z,972
2024-03-28T09:29:06.999Z,973
2024-03-28T09:41:06.965Z,972
2024-03-28T09:53:06.888Z,973
2024-03-28T10:05:06.876Z,973
2024-03-28T10:17:07.167Z,973
2024-03-28T10:29:06.989Z,973
2024-03-28T10:41:06.913Z,973
2024-03-28T10:53:07.347Z,973
2024-03-28T11:05:07.038Z,973
2024-03-28T11:17:07.413Z,973
2024-03-28T11:29:06.922Z,974
2024-03-28T11:41:06.873Z,974
2024-03-28T11:53:07.054Z,974
2024-03-28T12:05:07.033Z,974
2024-03-28T12:17:06.975Z,974
2024-03-28T12:29:06.945Z,974
2024-03-28T12:41:07.294Z,974
2024-03-28T12:53:07.067Z,974
2024-03-28T13:05:07.037Z,974
2024-03-28T13:17:07.059Z,973
2024-03-28T13:41:07.106Z,973
2024-03-28T13:53:07.137Z,973
2024-03-28T14:05:07.237Z,973
2024-03-28T14:17:07.037Z,973
2024-03-28T14:29:07.226Z,972
2024-03-28T14:41:07.154Z,972
2024-03-28T14:53:07.366Z,972
2024-03-28T15:05:07.428Z,972
2024-03-28T15:17:07.478Z,971
2024-03-28T15:29:07.401Z,971
2024-03-28T15:41:07.144Z,970
2024-03-28T15:53:07.320Z,970
2024-03-28T16:05:07.499Z,970
2024-03-28T16:17:07.625Z,970
2024-03-28T16:29:10.418Z,970
2024-03-28T16:41:07.316Z,970
2024-03-28T16:53:07.347Z,970
2024-03-28T17:05:07.256Z,969
2024-03-28T17:17:07.389Z,969
2024-03-28T17:29:07.548Z,969
2024-03-28T17:41:07.319Z,969
2024-03-28T17:53:11.619Z,969
2024-03-28T18:05:07.336Z,969
2024-03-28T18:17:07.252Z,969
2024-03-28T18:29:07.661Z,969
2024-03-28T18:41:07.395Z,969
2024-03-28T18:53:07.700Z,969
2024-03-28T19:05:07.500Z,969
2024-03-28T19:17:07.673Z,969
2024-03-28T19:29:07.594Z,969
2024-03-28T19:41:07.550Z,969
2024-03-28T19:53:07.491Z,969
2024-03-28T20:05:07.875Z,970
2024-03-28T20:17:07.390Z,970
2024-03-28T20:29:07.609Z,970
2024-03-28T20:41:07.526Z,970
2024-03-28T20:53:07.503Z,971
2024-03-28T21:05:07.437Z,971
2024-03-28T21:17:07.585Z,971
2024-03-28T21:29:07.538Z,971
2024-03-28T21:41:07.535Z,972
2024-03-28T21:53:07.672Z,972
2024-03-28T22:05:07.646Z,972
2024-03-28T22:17:07.580Z,973
2024-03-28T22:29:07.549Z,973
2024-03-28T22:41:07.730Z,974
2024-03-28T22:53:07.890Z,974
2024-03-28T23:05:07.601Z,974
2024-03-28T23:17:08.024Z,975
2024-03-28T23:29:07.736Z,975
2024-03-28T23:41:07.722Z,975
2024-03-28T23:53:07.684Z,976
